CFSUE CYYJ-CYAZ
Flight info
| Callsign | CFSUE |
|---|---|
| Flight time | N/A |
| Altitude | 17500 |
| Route | DIRECT |
| Aircraft | EB10/L-CHARTS/1200 |
Departure
| Time | N/A |
|---|---|
| Airport | Victoria International Airport (CYYJ) |
Arrival
| Time | 2026-04-23 18:43 |
|---|---|
| Airport | Tofino / Long Beach Airport (CYAZ) |
| Time | Latitude | Longitude | Altitude | Speed | Heading |
|---|---|---|---|---|---|
| 2026-04-23 18:25 | 48.32559 | -125.97827 | 16558 ft | 383 kts | 18° |
| 2026-04-23 18:25 | 48.35043 | -125.96366 | 16057 ft | 382 kts | 18° |
| 2026-04-23 18:26 | 48.37480 | -125.94931 | 15562 ft | 380 kts | 18° |
| 2026-04-23 18:26 | 48.39947 | -125.93476 | 15060 ft | 378 kts | 18° |
| 2026-04-23 18:26 | 48.42403 | -125.92027 | 14557 ft | 377 kts | 18° |
| 2026-04-23 18:26 | 48.44830 | -125.90592 | 14059 ft | 375 kts | 18° |
| 2026-04-23 18:27 | 48.47233 | -125.89171 | 13563 ft | 374 kts | 18° |
| 2026-04-23 18:27 | 48.49660 | -125.87733 | 13061 ft | 372 kts | 18° |
| 2026-04-23 18:27 | 48.52058 | -125.86311 | 12561 ft | 370 kts | 18° |
| 2026-04-23 18:27 | 48.54443 | -125.84895 | 12060 ft | 367 kts | 18° |
| 2026-04-23 18:28 | 48.56784 | -125.83502 | 11558 ft | 354 kts | 18° |
| 2026-04-23 18:28 | 48.59010 | -125.82171 | 11106 ft | 325 kts | 18° |
| 2026-04-23 18:28 | 48.60990 | -125.80977 | 10596 ft | 291 kts | 18° |
| 2026-04-23 18:28 | 48.62011 | -125.80360 | 10313 ft | 277 kts | 18° |
| 2026-04-23 18:29 | 48.62173 | -125.80262 | 10268 ft | 275 kts | 18° |
| 2026-04-23 18:29 | 48.63893 | -125.79225 | 9764 ft | 258 kts | 18° |
| 2026-04-23 18:29 | 48.65519 | -125.78248 | 9260 ft | 246 kts | 18° |
| 2026-04-23 18:29 | 48.67047 | -125.77331 | 8797 ft | 226 kts | 18° |
| 2026-04-23 18:30 | 48.68413 | -125.76505 | 8274 ft | 182 kts | 18° |
| 2026-04-23 18:30 | 48.69492 | -125.75849 | 7756 ft | 160 kts | 18° |
| 2026-04-23 18:30 | 48.70501 | -125.75243 | 7249 ft | 152 kts | 18° |
| 2026-04-23 18:30 | 48.71468 | -125.74665 | 6747 ft | 147 kts | 18° |
| 2026-04-23 18:31 | 48.72419 | -125.74100 | 6242 ft | 145 kts | 20° |
| 2026-04-23 18:31 | 48.73342 | -125.73551 | 5745 ft | 143 kts | 21° |
| 2026-04-23 18:31 | 48.74267 | -125.73000 | 5243 ft | 142 kts | 21° |
| 2026-04-23 18:31 | 48.75186 | -125.72450 | 4739 ft | 141 kts | 21° |
| 2026-04-23 18:32 | 48.76098 | -125.71906 | 4240 ft | 141 kts | 22° |
| 2026-04-23 18:32 | 48.77009 | -125.71361 | 3738 ft | 140 kts | 22° |
| 2026-04-23 18:32 | 48.77906 | -125.70824 | 3245 ft | 140 kts | 23° |
| 2026-04-23 18:32 | 48.78820 | -125.70276 | 2738 ft | 139 kts | 23° |
| 2026-04-23 18:33 | 48.79708 | -125.69743 | 2244 ft | 139 kts | 23° |
| 2026-04-23 18:33 | 48.80607 | -125.69203 | 1741 ft | 139 kts | 23° |
| 2026-04-23 18:33 | 48.81467 | -125.68687 | 1512 ft | 125 kts | 23° |
| 2026-04-23 18:33 | 48.82265 | -125.68205 | 1488 ft | 124 kts | 23° |
| 2026-04-23 18:34 | 48.83085 | -125.67707 | 1511 ft | 130 kts | 23° |
| 2026-04-23 18:34 | 48.83936 | -125.67190 | 1509 ft | 133 kts | 23° |
| 2026-04-23 18:34 | 48.84787 | -125.66674 | 1504 ft | 134 kts | 23° |
| 2026-04-23 18:34 | 48.85663 | -125.66142 | 1503 ft | 136 kts | 23° |
| 2026-04-23 18:35 | 48.86544 | -125.65608 | 1502 ft | 137 kts | 23° |
| 2026-04-23 18:35 | 48.86952 | -125.65360 | 1507 ft | 136 kts | 23° |
| 2026-04-23 18:35 | 48.87832 | -125.64825 | 1527 ft | 137 kts | 23° |
| 2026-04-23 18:35 | 48.88714 | -125.64289 | 1531 ft | 137 kts | 23° |
| 2026-04-23 18:36 | 48.89601 | -125.63751 | 1529 ft | 137 kts | 23° |
| 2026-04-23 18:36 | 48.90493 | -125.63209 | 1530 ft | 138 kts | 23° |
| 2026-04-23 18:36 | 48.91374 | -125.62673 | 1530 ft | 138 kts | 23° |
| 2026-04-23 18:36 | 48.92264 | -125.62132 | 1530 ft | 138 kts | 23° |
| 2026-04-23 18:37 | 48.93157 | -125.61589 | 1530 ft | 138 kts | 23° |
| 2026-04-23 18:37 | 48.94049 | -125.61046 | 1530 ft | 138 kts | 23° |
| 2026-04-23 18:37 | 48.94940 | -125.60502 | 1529 ft | 138 kts | 23° |
| 2026-04-23 18:37 | 48.95821 | -125.59965 | 1529 ft | 138 kts | 23° |
| 2026-04-23 18:38 | 48.96712 | -125.59421 | 1530 ft | 138 kts | 23° |
| 2026-04-23 18:38 | 48.97607 | -125.58874 | 1529 ft | 138 kts | 23° |
| 2026-04-23 18:38 | 48.98509 | -125.58385 | 1519 ft | 139 kts | 13° |
| 2026-04-23 18:38 | 48.99415 | -125.58768 | 1519 ft | 142 kts | 322° |
| 2026-04-23 18:39 | 48.99992 | -125.60016 | 1565 ft | 145 kts | 298° |
| 2026-04-23 18:39 | 49.00460 | -125.61334 | 1533 ft | 142 kts | 298° |
| 2026-04-23 18:39 | 49.00962 | -125.62634 | 1526 ft | 141 kts | 301° |
| 2026-04-23 18:39 | 49.01451 | -125.63920 | 1528 ft | 140 kts | 298° |
| 2026-04-23 18:40 | 49.01930 | -125.65219 | 1529 ft | 140 kts | 298° |
| 2026-04-23 18:40 | 49.02405 | -125.66510 | 1529 ft | 139 kts | 298° |
| 2026-04-23 18:40 | 49.02879 | -125.67801 | 1529 ft | 139 kts | 298° |
| 2026-04-23 18:40 | 49.03349 | -125.69078 | 1529 ft | 139 kts | 298° |
| 2026-04-23 18:41 | 49.03823 | -125.70367 | 1529 ft | 139 kts | 298° |
| 2026-04-23 18:41 | 49.04299 | -125.71658 | 1530 ft | 139 kts | 298° |
| 2026-04-23 18:41 | 49.04765 | -125.72926 | 1529 ft | 139 kts | 298° |
| 2026-04-23 18:41 | 49.05241 | -125.74217 | 1529 ft | 139 kts | 298° |
| 2026-04-23 18:42 | 49.05797 | -125.75476 | 1297 ft | 146 kts | 307° |
| 2026-04-23 18:42 | 49.06485 | -125.76607 | 855 ft | 136 kts | 318° |
| 2026-04-23 18:42 | 49.07168 | -125.77499 | 367 ft | 127 kts | 321° |
| 2026-04-23 18:42 | 49.07924 | -125.77947 | 84 ft | 109 kts | 348° |
| 2026-04-23 18:43 | 49.08526 | -125.78050 | 85 ft | 80 kts | 354° |
| 2026-04-23 18:43 | 49.08939 | -125.78100 | 85 ft | 22 kts | 358° |
| 2026-04-23 18:43 | 49.08952 | -125.78133 | 85 ft | 6 kts | 195° |
| 2026-04-23 18:43 | 49.08947 | -125.78133 | 85 ft | 1 kts | 165° |
| 2026-04-23 18:44 | 49.08942 | -125.78127 | 85 ft | 0 kts | 134° |
| 2026-04-23 18:44 | 49.08938 | -125.78120 | 85 ft | 0 kts | 134° |
| 2026-04-23 18:44 | 49.08937 | -125.78119 | 85 ft | 0 kts | 134° |
| 2026-04-23 18:44 | 49.08935 | -125.78114 | 85 ft | 2 kts | 124° |
| 2026-04-23 18:45 | 49.08922 | -125.78086 | 85 ft | 5 kts | 123° |
| 2026-04-23 18:45 | 49.08917 | -125.78070 | 85 ft | 0 kts | 107° |
| 2026-04-23 18:45 | 49.08902 | -125.78007 | 84 ft | 2 kts | 161° |
| 2026-04-23 18:47 | 49.08884 | -125.77998 | 85 ft | 6 kts | 161° |
| 2026-04-23 18:47 | 49.08872 | -125.77983 | 85 ft | 5 kts | 134° |